createdAt,value
2018-06-02T00:00:15.944Z,18.30
2018-06-02T00:02:42.950Z,18.20
2018-06-02T00:05:09.975Z,18.20
2018-06-02T00:07:36.984Z,18.20
2018-06-02T00:10:04.003Z,18.20
2018-06-02T00:12:31.027Z,18.10
2018-06-02T00:14:58.814Z,18.10
2018-06-02T00:17:25.816Z,18.10
2018-06-02T00:19:53.579Z,18.00
2018-06-02T00:22:20.606Z,18.00
2018-06-02T00:24:47.608Z,18.00
2018-06-02T00:27:14.699Z,18.00
2018-06-02T00:29:42.570Z,17.90
2018-06-02T00:32:09.587Z,17.90
2018-06-02T00:34:36.695Z,18.00
2018-06-02T00:37:04.842Z,17.90
2018-06-02T00:39:31.853Z,17.90
2018-06-02T00:41:59.642Z,17.90
2018-06-02T00:44:26.660Z,17.90
2018-06-02T00:46:53.717Z,17.80
2018-06-02T00:49:20.804Z,17.80
2018-06-02T00:51:47.857Z,17.80
2018-06-02T00:54:14.906Z,17.80
2018-06-02T00:56:41.926Z,17.80
2018-06-02T00:59:08.940Z,17.80
2018-06-02T01:01:36.736Z,17.80
2018-06-02T01:04:03.758Z,17.80
2018-06-02T01:06:30.862Z,17.80
2018-06-02T01:08:57.864Z,17.70
2018-06-02T01:11:24.872Z,17.60
2018-06-02T01:13:51.892Z,17.70
2018-06-02T01:16:18.919Z,17.70
2018-06-02T01:18:45.998Z,17.60
2018-06-02T01:21:13.035Z,17.70
2018-06-02T01:23:40.026Z,17.60
2018-06-02T01:26:07.101Z,17.50
2018-06-02T01:28:34.109Z,17.60
2018-06-02T01:31:01.118Z,17.70
2018-06-02T01:33:28.150Z,17.70
2018-06-02T01:35:55.152Z,17.60
2018-06-02T01:38:22.946Z,17.60
2018-06-02T01:40:50.064Z,17.60
2018-06-02T01:43:17.066Z,17.60
2018-06-02T01:45:44.089Z,17.60
2018-06-02T01:48:11.103Z,17.50
2018-06-02T01:50:38.194Z,17.60
2018-06-02T01:53:05.713Z,17.60
2018-06-02T01:55:33.479Z,17.60
2018-06-02T01:58:01.248Z,17.50
2018-06-02T02:00:29.029Z,17.50
2018-06-02T02:02:56.805Z,17.50
2018-06-02T02:05:25.088Z,17.40
2018-06-02T02:07:53.318Z,17.50
2018-06-02T02:10:20.773Z,17.50
2018-06-02T02:12:48.248Z,17.70
2018-06-02T02:15:15.720Z,17.90
2018-06-02T02:17:43.194Z,18.00
2018-06-02T02:20:10.652Z,18.00
2018-06-02T02:22:38.131Z,18.00
2018-06-02T02:25:05.588Z,18.00
2018-06-02T02:27:33.072Z,17.90
2018-06-02T02:30:00.542Z,17.80
2018-06-02T02:32:28.132Z,17.60
2018-06-02T02:34:55.610Z,17.60
2018-06-02T02:37:23.088Z,17.60
2018-06-02T02:39:51.360Z,17.50
2018-06-02T02:42:18.848Z,17.50
2018-06-02T02:44:46.418Z,17.50
2018-06-02T02:47:13.915Z,17.50
2018-06-02T02:49:42.144Z,17.50
2018-06-02T02:52:09.659Z,17.50
2018-06-02T02:54:37.132Z,17.60
2018-06-02T02:57:04.584Z,17.80
2018-06-02T02:59:32.150Z,17.80
2018-06-02T03:01:59.614Z,17.90
2018-06-02T03:04:27.129Z,17.90
2018-06-02T03:06:55.359Z,17.90
2018-06-02T03:09:22.830Z,17.90
2018-06-02T03:11:50.299Z,17.90
2018-06-02T03:14:17.761Z,17.90
2018-06-02T03:16:45.252Z,17.90
2018-06-02T03:19:12.737Z,17.80
2018-06-02T03:21:40.248Z,17.80
2018-06-02T03:24:07.695Z,17.90
2018-06-02T03:26:35.957Z,17.80
2018-06-02T03:29:03.524Z,17.80
2018-06-02T03:31:31.160Z,17.90
2018-06-02T03:33:58.619Z,17.90
2018-06-02T03:36:26.092Z,17.80
2018-06-02T03:38:53.599Z,17.80
2018-06-02T03:41:21.088Z,17.80
2018-06-02T03:43:48.544Z,17.90
2018-06-02T03:46:16.114Z,17.80
2018-06-02T03:48:43.579Z,17.90
2018-06-02T03:51:11.040Z,17.90
2018-06-02T03:53:38.566Z,18.00
2018-06-02T03:56:06.799Z,18.00
2018-06-02T03:58:34.262Z,17.90
2018-06-02T04:01:01.870Z,18.10
2018-06-02T04:03:29.331Z,18.10
2018-06-02T04:05:56.795Z,18.20
2018-06-02T04:08:24.260Z,18.30
2018-06-02T04:10:51.731Z,18.30
2018-06-02T04:13:19.208Z,18.30
2018-06-02T04:15:46.716Z,18.20
2018-06-02T04:18:14.159Z,18.30
2018-06-02T04:20:41.616Z,18.20
2018-06-02T04:23:09.079Z,18.30
2018-06-02T04:25:36.551Z,18.30
2018-06-02T04:28:04.039Z,18.30
2018-06-02T04:30:31.531Z,18.40
2018-06-02T04:32:59.794Z,18.50
2018-06-02T04:35:27.267Z,18.40
2018-06-02T04:37:54.728Z,18.40
2018-06-02T04:40:22.207Z,18.40
2018-06-02T04:42:49.783Z,18.40
2018-06-02T04:45:17.339Z,18.50
2018-06-02T04:47:44.811Z,18.60
2018-06-02T04:50:12.285Z,18.60
2018-06-02T04:52:39.775Z,18.50
2018-06-02T04:55:08.007Z,18.50
2018-06-02T04:57:35.486Z,18.50
2018-06-02T05:00:02.982Z,18.60
2018-06-02T05:02:30.559Z,18.60
2018-06-02T05:04:58.013Z,18.60
2018-06-02T05:07:25.587Z,18.70
2018-06-02T05:09:53.171Z,18.60
2018-06-02T05:12:20.737Z,18.70
2018-06-02T05:14:48.296Z,18.80
2018-06-02T05:17:15.783Z,18.80
2018-06-02T05:19:43.280Z,18.70
2018-06-02T05:22:11.527Z,18.80
2018-06-02T05:24:39.003Z,18.80
2018-06-02T05:27:06.483Z,18.80
2018-06-02T05:29:34.059Z,18.70
2018-06-02T05:32:01.522Z,18.80
2018-06-02T05:34:28.987Z,18.90
2018-06-02T05:36:56.470Z,18.90
2018-06-02T05:39:23.924Z,18.80
2018-06-02T05:41:51.403Z,18.80
2018-06-02T05:44:18.883Z,18.80
2018-06-02T05:46:46.362Z,18.90
2018-06-02T05:49:14.589Z,18.90
2018-06-02T05:51:42.044Z,18.90
2018-06-02T05:54:09.852Z,18.90
2018-06-02T05:56:37.326Z,19.00
2018-06-02T05:59:04.800Z,19.00
2018-06-02T06:01:32.302Z,18.90
2018-06-02T06:04:00.532Z,18.90
2018-06-02T06:06:28.097Z,18.90
2018-06-02T06:08:55.516Z,18.80
2018-06-02T06:11:22.986Z,18.80
2018-06-02T06:13:51.305Z,18.80
2018-06-02T06:16:18.772Z,18.80
2018-06-02T06:18:47.010Z,18.90
2018-06-02T06:21:14.495Z,18.90
2018-06-02T06:23:41.948Z,18.80
2018-06-02T06:26:09.435Z,18.90
2018-06-02T06:28:36.920Z,18.90
2018-06-02T06:31:05.172Z,19.00
2018-06-02T06:33:32.651Z,19.00
2018-06-02T06:36:00.123Z,18.90
2018-06-02T06:38:27.595Z,18.90
2018-06-02T06:40:55.065Z,18.90
2018-06-02T06:43:22.529Z,18.90
2018-06-02T06:45:50.469Z,19.10
2018-06-02T06:48:17.987Z,19.20
2018-06-02T06:50:45.562Z,19.20
2018-06-02T06:53:13.019Z,19.10
2018-06-02T06:55:40.477Z,18.90
2018-06-02T06:58:08.043Z,18.90
2018-06-02T07:00:35.510Z,18.80
2018-06-02T07:03:02.975Z,18.90
2018-06-02T07:05:30.432Z,18.80
2018-06-02T07:07:57.916Z,18.70
2018-06-02T07:10:25.376Z,18.80
2018-06-02T07:12:52.854Z,18.80
2018-06-02T07:15:20.315Z,18.90
2018-06-02T07:17:47.861Z,18.80
2018-06-02T07:20:15.289Z,18.90
2018-06-02T07:22:42.768Z,18.90
2018-06-02T07:25:10.232Z,19.00
2018-06-02T07:27:37.739Z,19.10
2018-06-02T07:30:05.987Z,19.10
2018-06-02T07:32:33.444Z,19.10
2018-06-02T07:35:00.911Z,19.10
2018-06-02T07:37:28.388Z,19.00
2018-06-02T07:39:55.855Z,18.80
2018-06-02T07:42:23.316Z,18.90
2018-06-02T07:44:50.796Z,18.90
2018-06-02T07:47:18.267Z,19.00
2018-06-02T07:49:45.767Z,19.00
2018-06-02T07:52:13.191Z,19.00
2018-06-02T07:54:40.652Z,19.00
2018-06-02T07:57:08.127Z,18.90
2018-06-02T07:59:35.609Z,18.90
2018-06-02T08:02:03.070Z,18.90
2018-06-02T08:04:30.548Z,18.90
2018-06-02T08:06:57.566Z,19.00
2018-06-02T08:09:25.363Z,19.20
2018-06-02T08:11:52.360Z,19.20
2018-06-02T08:14:19.368Z,19.20
2018-06-02T08:16:46.368Z,19.10
2018-06-02T08:19:13.491Z,19.10
2018-06-02T08:21:40.502Z,19.10
2018-06-02T08:24:07.522Z,19.20
2018-06-02T08:26:34.549Z,19.30
2018-06-02T08:29:01.544Z,19.30
2018-06-02T08:31:28.584Z,19.40
2018-06-02T08:33:55.598Z,19.50
2018-06-02T08:36:22.596Z,19.50
2018-06-02T08:38:49.622Z,19.60
2018-06-02T08:41:16.637Z,19.70
2018-06-02T08:43:43.674Z,19.70
2018-06-02T08:46:10.672Z,19.80
2018-06-02T08:48:37.689Z,19.90
2018-06-02T08:51:05.152Z,20.00
2018-06-02T08:53:33.392Z,20.20
2018-06-02T08:56:00.848Z,20.20
2018-06-02T08:58:28.315Z,20.20
2018-06-02T09:00:55.830Z,20.30
2018-06-02T09:03:23.302Z,20.40
2018-06-02T09:05:50.755Z,20.40
2018-06-02T09:08:18.227Z,20.40
2018-06-02T09:10:45.702Z,20.30
2018-06-02T09:13:13.663Z,20.50
2018-06-02T09:15:41.417Z,20.70
2018-06-02T09:18:12.000Z,21.00
2018-06-02T09:20:39.471Z,21.30
2018-06-02T09:23:06.964Z,21.50
2018-06-02T09:25:35.199Z,22.20
2018-06-02T09:28:02.683Z,22.20
2018-06-02T09:30:30.158Z,22.40
2018-06-02T09:32:57.622Z,22.40
2018-06-02T09:35:25.080Z,22.40
2018-06-02T09:37:52.547Z,22.50
2018-06-02T09:40:20.032Z,22.60
2018-06-02T09:42:47.491Z,22.50
2018-06-02T09:45:14.959Z,22.70
2018-06-02T09:47:42.460Z,22.70
2018-06-02T09:50:09.911Z,22.80
2018-06-02T09:52:37.391Z,22.90
2018-06-02T09:55:04.877Z,22.80
2018-06-02T09:57:32.338Z,22.80
2018-06-02T09:59:59.796Z,23.00
2018-06-02T10:02:27.271Z,23.00
2018-06-02T10:04:54.762Z,23.10
2018-06-02T10:07:22.314Z,23.30
2018-06-02T10:09:49.788Z,23.50
2018-06-02T10:12:17.262Z,23.40
2018-06-02T10:14:44.716Z,23.30
2018-06-02T10:17:12.187Z,23.10
2018-06-02T10:19:39.661Z,22.90
2018-06-02T10:22:07.132Z,22.60
2018-06-02T10:24:34.598Z,22.50
2018-06-02T10:27:02.073Z,22.30
2018-06-02T10:29:29.525Z,22.40
2018-06-02T10:31:56.558Z,22.30
2018-06-02T10:34:24.027Z,22.10
2018-06-02T10:36:51.493Z,21.60
2018-06-02T10:39:18.963Z,21.50
2018-06-02T10:41:46.425Z,21.40
2018-06-02T10:44:13.904Z,21.50
2018-06-02T10:46:41.379Z,21.70
2018-06-02T10:49:08.831Z,21.90
2018-06-02T10:51:36.314Z,22.00
2018-06-02T10:54:03.773Z,22.20
2018-06-02T10:56:31.241Z,22.40
2018-06-02T10:58:58.753Z,22.60
2018-06-02T11:01:26.218Z,22.70
2018-06-02T11:03:53.691Z,22.70
2018-06-02T11:06:21.144Z,22.70
2018-06-02T11:08:48.612Z,22.60
2018-06-02T11:11:16.084Z,22.60
2018-06-02T11:13:43.556Z,22.70
2018-06-02T11:16:11.031Z,22.80
2018-06-02T11:18:38.491Z,22.80
2018-06-02T11:21:05.957Z,22.80
2018-06-02T11:23:33.447Z,22.80
2018-06-02T11:26:00.908Z,22.70
2018-06-02T11:28:28.367Z,22.60
2018-06-02T11:30:55.825Z,22.40
2018-06-02T11:33:23.282Z,22.30
2018-06-02T11:35:50.798Z,22.50
2018-06-02T11:38:18.239Z,22.50
2018-06-02T11:40:46.310Z,22.40
2018-06-02T11:43:13.778Z,22.30
2018-06-02T11:45:41.241Z,22.10
2018-06-02T11:48:08.734Z,22.30
2018-06-02T11:50:36.198Z,22.60
2018-06-02T11:53:03.683Z,22.70
2018-06-02T11:55:31.154Z,22.80
2018-06-02T11:57:58.632Z,22.60
2018-06-02T12:00:26.093Z,22.60
2018-06-02T12:02:53.552Z,22.80
2018-06-02T12:05:21.042Z,22.70
2018-06-02T12:07:48.516Z,22.70
2018-06-02T12:10:15.986Z,22.80
2018-06-02T12:12:43.459Z,22.90
2018-06-02T12:15:10.924Z,23.00
2018-06-02T12:17:38.394Z,23.20
2018-06-02T12:20:05.859Z,23.30
2018-06-02T12:22:33.313Z,23.30
2018-06-02T12:25:00.799Z,23.40
2018-06-02T12:27:28.275Z,23.70
2018-06-02T12:29:55.758Z,23.80
2018-06-02T12:32:23.223Z,24.00
2018-06-02T12:34:50.736Z,24.00
2018-06-02T12:37:18.181Z,23.90
2018-06-02T12:39:45.640Z,23.90
2018-06-02T12:42:13.298Z,23.70
2018-06-02T12:44:40.778Z,23.60
2018-06-02T12:47:08.240Z,23.40
2018-06-02T12:49:35.259Z,23.30
2018-06-02T12:52:02.736Z,23.20
2018-06-02T12:54:30.228Z,23.10
2018-06-02T12:56:57.690Z,23.00
2018-06-02T12:59:24.687Z,22.70
2018-06-02T13:01:52.173Z,22.60
2018-06-02T13:04:19.644Z,22.30
2018-06-02T13:06:47.129Z,22.10
2018-06-02T13:09:14.631Z,21.90
2018-06-02T13:11:42.130Z,22.00
2018-06-02T13:14:09.620Z,22.00
2018-06-02T13:16:37.202Z,22.00
2018-06-02T13:19:04.215Z,22.10
2018-06-02T13:21:31.781Z,22.00
2018-06-02T13:24:00.004Z,22.00
2018-06-02T13:26:27.698Z,22.00
2018-06-02T13:28:55.178Z,22.00
2018-06-02T13:31:22.640Z,22.10
2018-06-02T13:33:50.528Z,22.20
2018-06-02T13:36:17.984Z,22.30
2018-06-02T13:38:45.433Z,22.50
2018-06-02T13:41:12.912Z,22.60
2018-06-02T13:43:40.360Z,22.70
2018-06-02T13:46:07.828Z,22.80
2018-06-02T13:48:35.290Z,22.90
2018-06-02T13:51:02.759Z,22.90
2018-06-02T13:53:30.246Z,22.80
2018-06-02T13:55:57.717Z,22.70
2018-06-02T13:58:25.182Z,22.90
2018-06-02T14:00:52.644Z,22.90
2018-06-02T14:03:20.115Z,23.00
2018-06-02T14:05:47.587Z,23.20
2018-06-02T14:08:15.079Z,23.40
2018-06-02T14:10:42.540Z,23.40
2018-06-02T14:13:09.991Z,23.50
2018-06-02T14:15:37.470Z,23.50
2018-06-02T14:18:04.925Z,23.50
2018-06-02T14:20:32.892Z,23.50
2018-06-02T14:23:00.360Z,23.60
2018-06-02T14:25:27.818Z,23.70
2018-06-02T14:27:56.046Z,24.10
2018-06-02T14:30:23.520Z,24.10
2018-06-02T14:32:50.527Z,24.50
2018-06-02T14:35:18.649Z,27.00
2018-06-02T14:37:46.125Z,26.90
2018-06-02T14:40:13.601Z,28.50
2018-06-02T14:42:41.059Z,29.90
2018-06-02T14:45:08.554Z,31.50
2018-06-02T14:47:36.032Z,33.00
2018-06-02T14:50:03.492Z,32.50
2018-06-02T14:52:31.021Z,32.00
2018-06-02T14:54:58.540Z,31.90
2018-06-02T14:57:25.970Z,32.20
2018-06-02T14:59:53.424Z,32.30
2018-06-02T15:02:21.677Z,32.90
2018-06-02T15:04:49.163Z,32.90
2018-06-02T15:07:16.638Z,32.30
2018-06-02T15:09:45.819Z,30.80
2018-06-02T15:12:13.266Z,30.80
2018-06-02T15:14:40.755Z,31.20
2018-06-02T15:17:08.210Z,31.90
2018-06-02T15:19:35.686Z,32.60
2018-06-02T15:22:03.195Z,33.00
2018-06-02T15:24:31.431Z,34.00
2018-06-02T15:26:58.889Z,33.90
2018-06-02T15:29:26.368Z,34.00
2018-06-02T15:31:53.827Z,34.20
2018-06-02T15:34:21.317Z,34.00
2018-06-02T15:36:48.801Z,34.20
2018-06-02T15:39:16.271Z,34.20
2018-06-02T15:41:43.730Z,34.20
2018-06-02T15:44:11.181Z,34.10
2018-06-02T15:46:38.640Z,33.70
2018-06-02T15:49:06.104Z,33.70
2018-06-02T15:51:33.621Z,33.50
2018-06-02T15:54:01.074Z,33.40
2018-06-02T15:56:28.550Z,33.70
2018-06-02T15:58:56.015Z,34.00
2018-06-02T16:01:23.498Z,34.40
2018-06-02T16:03:50.975Z,34.70
2018-06-02T16:06:18.433Z,35.30
2018-06-02T16:08:45.907Z,36.20
2018-06-02T16:11:13.383Z,36.90
2018-06-02T16:13:40.878Z,37.80
2018-06-02T16:16:09.097Z,37.60
2018-06-02T16:24:09.348Z,37.50
2018-06-02T16:26:37.743Z,37.10
2018-06-02T16:29:06.006Z,36.80
2018-06-02T16:31:34.367Z,37.00
2018-06-02T16:34:02.666Z,37.30
2018-06-02T16:36:30.912Z,37.70
2018-06-02T16:38:59.441Z,38.20
2018-06-02T16:41:27.731Z,38.40
2018-06-02T16:43:56.008Z,38.80
2018-06-02T16:46:24.253Z,39.40
2018-06-02T16:48:52.512Z,39.00
2018-06-02T16:51:21.000Z,38.40
2018-06-02T16:53:49.288Z,38.20
2018-06-02T16:56:17.566Z,38.30
2018-06-02T16:58:45.814Z,38.60
2018-06-02T17:01:14.091Z,39.20
2018-06-02T17:03:42.383Z,39.40
2018-06-02T17:06:10.675Z,39.50
2018-06-02T17:08:38.915Z,39.70
2018-06-02T17:11:07.231Z,39.90
2018-06-02T17:13:35.465Z,39.90
2018-06-02T17:16:03.727Z,39.30
2018-06-02T17:18:32.049Z,38.70
2018-06-02T17:21:00.312Z,38.50
2018-06-02T17:23:28.593Z,38.50
2018-06-02T17:25:56.888Z,38.10
2018-06-02T17:28:25.255Z,37.40
2018-06-02T17:30:53.512Z,36.60
2018-06-02T17:33:21.883Z,36.10
2018-06-02T17:35:50.214Z,35.50
2018-06-02T17:38:18.496Z,34.40
2018-06-02T17:40:46.771Z,33.90
2018-06-02T17:43:15.108Z,33.20
2018-06-02T17:45:43.332Z,32.70
2018-06-02T17:48:11.724Z,32.20
2018-06-02T17:50:40.228Z,31.80
2018-06-02T17:53:08.498Z,31.30
2018-06-02T17:55:36.755Z,30.80
2018-06-02T17:58:04.973Z,30.60
2018-06-02T18:00:33.278Z,30.40
2018-06-02T18:03:01.563Z,30.20
2018-06-02T18:05:29.805Z,29.90
2018-06-02T18:07:58.070Z,29.90
2018-06-02T18:10:26.309Z,29.60
2018-06-02T18:12:54.594Z,29.00
2018-06-02T18:17:50.831Z,28.70
2018-06-02T18:20:19.098Z,28.50
2018-06-02T18:22:47.351Z,28.20
2018-06-02T18:25:15.626Z,28.20
2018-06-02T18:32:39.902Z,28.10
2018-06-02T18:35:08.195Z,27.90
2018-06-02T18:37:36.454Z,27.90
2018-06-02T18:40:04.758Z,28.00
2018-06-02T18:42:33.048Z,27.90
2018-06-02T18:45:01.325Z,27.80
2018-06-02T18:47:29.581Z,27.80
2018-06-02T18:49:57.908Z,27.70
2018-06-02T18:52:26.171Z,27.70
2018-06-02T18:54:54.430Z,27.70
2018-06-02T18:57:22.692Z,27.50
2018-06-02T18:59:51.044Z,27.40
2018-06-02T19:02:19.307Z,27.30
2018-06-02T19:04:47.600Z,27.20
2018-06-02T19:07:15.853Z,27.10
2018-06-02T19:09:44.151Z,27.00
2018-06-02T19:12:12.407Z,26.80
2018-06-02T19:14:40.647Z,26.60
2018-06-02T19:17:08.913Z,26.40
2018-06-02T19:19:37.182Z,26.30
2018-06-02T19:22:05.399Z,26.20
2018-06-02T19:24:33.741Z,26.10
2018-06-02T19:29:29.992Z,25.90
2018-06-02T19:31:58.299Z,25.90
2018-06-02T19:36:54.540Z,25.80
2018-06-02T19:39:22.802Z,25.80
2018-06-02T19:41:51.064Z,25.70
2018-06-02T19:44:19.328Z,25.60
2018-06-02T19:46:47.582Z,25.60
2018-06-02T19:49:15.860Z,25.50
2018-06-02T19:51:44.123Z,25.50
2018-06-02T19:54:12.453Z,25.40
2018-06-02T19:56:40.703Z,25.40
2018-06-02T19:59:08.965Z,25.30
2018-06-02T20:04:05.251Z,25.20
2018-06-02T20:06:33.559Z,25.20
2018-06-02T20:09:01.840Z,25.10
2018-06-02T20:11:30.056Z,25.10
2018-06-02T20:13:58.293Z,25.00
2018-06-02T20:18:54.685Z,24.90
2018-06-02T20:21:22.940Z,24.90
2018-06-02T20:26:19.326Z,24.80
2018-06-02T20:31:18.419Z,24.70
2018-06-02T20:33:46.669Z,24.60
2018-06-02T20:36:15.760Z,24.50
2018-06-02T20:39:01.017Z,24.50
2018-06-02T20:41:29.268Z,24.40
2018-06-02T20:43:57.508Z,24.40
2018-06-02T20:46:26.027Z,24.40
2018-06-02T20:48:54.357Z,24.40
2018-06-02T20:51:22.612Z,24.30
2018-06-02T20:53:50.944Z,24.30
2018-06-02T20:56:19.258Z,24.30
2018-06-02T20:58:47.607Z,24.20
2018-06-02T21:01:15.887Z,24.20
2018-06-02T21:03:44.332Z,24.10
2018-06-02T21:08:40.973Z,24.00
2018-06-02T21:11:09.236Z,24.00
2018-06-02T21:13:37.663Z,23.90
2018-06-02T21:16:05.956Z,23.80
2018-06-02T21:18:34.230Z,23.70
2018-06-02T21:21:02.539Z,23.70
2018-06-02T21:23:30.801Z,23.60
2018-06-02T21:25:59.076Z,23.50
2018-06-02T21:28:27.319Z,23.40
2018-06-02T21:30:55.589Z,23.40
2018-06-02T21:33:23.877Z,23.30
2018-06-02T21:35:52.214Z,23.30
2018-06-02T21:38:20.458Z,23.20
2018-06-02T21:40:48.743Z,23.10
2018-06-02T21:43:17.308Z,23.00
2018-06-02T21:45:45.692Z,22.90
2018-06-02T21:48:13.932Z,22.80
2018-06-02T21:50:42.216Z,22.70
2018-06-02T21:53:10.507Z,22.70
2018-06-02T21:55:39.082Z,22.70
2018-06-02T21:58:07.509Z,22.60
2018-06-02T22:00:35.804Z,22.60
2018-06-02T22:05:32.295Z,22.50
2018-06-02T22:08:00.603Z,22.50
2018-06-02T22:10:28.852Z,22.40
2018-06-02T22:15:25.284Z,22.30
2018-06-02T22:17:53.544Z,22.30
2018-06-02T22:20:21.831Z,22.30
2018-06-02T22:22:50.308Z,22.30
2018-06-02T22:25:18.622Z,22.30
2018-06-02T22:27:46.899Z,22.30
2018-06-02T22:30:15.163Z,22.20
2018-06-02T22:35:11.357Z,22.00
2018-06-02T22:37:39.592Z,21.90
2018-06-02T22:40:07.850Z,21.80
2018-06-02T22:42:36.129Z,21.80
2018-06-02T22:47:32.402Z,21.70
2018-06-02T22:50:00.712Z,21.70
2018-06-02T22:52:29.022Z,21.70
2018-06-02T22:54:57.302Z,21.60
2018-06-02T22:57:25.624Z,21.60
2018-06-02T23:02:22.031Z,21.70
2018-06-02T23:04:50.381Z,21.70
2018-06-02T23:07:18.683Z,21.70
2018-06-02T23:09:47.012Z,21.70
2018-06-02T23:12:15.300Z,21.60
2018-06-02T23:14:43.557Z,21.70
2018-06-02T23:17:11.822Z,21.60
2018-06-02T23:22:13.705Z,21.60
2018-06-02T23:24:41.978Z,21.60
2018-06-02T23:27:10.229Z,21.50
2018-06-02T23:29:38.469Z,21.40
2018-06-02T23:32:06.758Z,21.50
2018-06-02T23:34:35.025Z,21.50
2018-06-02T23:37:03.295Z,21.40
2018-06-02T23:39:31.542Z,21.40
2018-06-02T23:41:59.830Z,21.40
2018-06-02T23:44:28.107Z,21.40
2018-06-02T23:46:56.385Z,21.40
2018-06-02T23:49:24.672Z,21.40
2018-06-02T23:51:53.473Z,21.30
2018-06-02T23:54:21.751Z,21.20
2018-06-02T23:56:50.049Z,21.20
2018-06-02T23:59:18.310Z,21.20
